createdAt,value
2023-01-19T00:01:45.796Z,99706.13
2023-01-19T00:04:14.564Z,99705.28
2023-01-19T00:06:44.819Z,99705.25
2023-01-19T00:09:13.595Z,99707.00
2023-01-19T00:11:42.417Z,99710.44
2023-01-19T00:14:10.852Z,99704.41
2023-01-19T00:16:39.219Z,99700.97
2023-01-19T00:19:07.999Z,99702.69
2023-01-19T00:21:37.006Z,99707.00
2023-01-19T00:24:08.236Z,99701.81
2023-01-19T00:26:40.533Z,99702.72
2023-01-19T00:29:09.599Z,99711.34
2023-01-19T00:31:38.752Z,99697.56
2023-01-19T00:34:08.942Z,99703.63
2023-01-19T00:36:37.419Z,99708.78
2023-01-19T00:39:07.251Z,99707.97
2023-01-19T00:41:52.903Z,99710.59
2023-01-19T00:44:21.665Z,99710.59
2023-01-19T00:46:50.193Z,99711.47
2023-01-19T00:49:18.785Z,99707.19
2023-01-19T00:51:47.247Z,99712.38
2023-01-19T00:54:17.119Z,99712.38
2023-01-19T00:56:46.024Z,99714.97
2023-01-19T00:59:14.750Z,99709.75
2023-01-19T01:01:45.183Z,99709.78
2023-01-19T01:04:15.001Z,99711.53
2023-01-19T01:06:44.102Z,99710.66
2023-01-19T01:09:12.881Z,99706.31
2023-01-19T01:11:43.975Z,99706.28
2023-01-19T01:14:13.501Z,99720.13
2023-01-19T01:16:42.648Z,99718.38
2023-01-19T01:19:11.252Z,99726.16
2023-01-19T01:21:39.671Z,99734.81
2023-01-19T01:24:09.428Z,99736.50
2023-01-19T01:26:38.101Z,99743.38
2023-01-19T01:29:08.867Z,99738.19
2023-01-19T01:31:37.624Z,99736.41
2023-01-19T01:34:06.166Z,99741.56
2023-01-19T01:36:35.849Z,99743.19
2023-01-19T01:39:04.613Z,99744.91
2023-01-19T01:41:33.529Z,99746.56
2023-01-19T01:44:06.293Z,99743.03
2023-01-19T01:46:36.086Z,99743.06
2023-01-19T01:49:09.732Z,99743.00
2023-01-19T01:51:45.102Z,99748.13
2023-01-19T01:54:19.023Z,99746.41
2023-01-19T01:56:50.498Z,99745.59
2023-01-19T01:59:29.926Z,99742.09
2023-01-19T02:02:23.395Z,99743.81
2023-01-19T02:04:56.009Z,99747.25
2023-01-19T02:07:55.291Z,99745.53
2023-01-19T02:10:41.688Z,99745.53
2023-01-19T02:13:19.791Z,99752.44
2023-01-19T02:15:49.708Z,99752.44
2023-01-19T02:18:19.721Z,99761.06
2023-01-19T02:20:58.794Z,99752.41
2023-01-19T02:23:41.770Z,99746.34
2023-01-19T02:26:12.715Z,99753.28
2023-01-19T02:28:46.081Z,99760.19
2023-01-19T02:31:15.338Z,99761.06
2023-01-19T02:33:44.189Z,99758.50
2023-01-19T02:36:15.240Z,99759.34
2023-01-19T02:38:46.426Z,99759.34
2023-01-19T02:41:20.861Z,99764.56
2023-01-19T02:43:51.092Z,99759.41
2023-01-19T02:46:19.852Z,99763.72
2023-01-19T02:48:48.337Z,99758.53
2023-01-19T02:51:18.755Z,99763.72
2023-01-19T02:54:24.906Z,99770.63
2023-01-19T02:57:14.457Z,99755.03
2023-01-19T02:59:58.435Z,99760.25
2023-01-19T03:02:38.295Z,99762.88
2023-01-19T03:05:37.037Z,99756.84
2023-01-19T03:08:16.341Z,99766.34
2023-01-19T03:10:54.781Z,99756.88
2023-01-19T03:13:31.739Z,99762.06
2023-01-19T03:16:08.279Z,99756.00
2023-01-19T03:18:39.839Z,99762.06
2023-01-19T03:21:11.048Z,99760.34
2023-01-19T03:23:42.948Z,99761.22
2023-01-19T03:26:17.507Z,99762.91
2023-01-19T03:28:48.913Z,99770.66
2023-01-19T03:31:22.071Z,99767.25
2023-01-19T03:33:54.896Z,99773.31
2023-01-19T03:36:28.634Z,99775.06
2023-01-19T03:39:00.010Z,99775.94
2023-01-19T03:41:34.339Z,99775.09
2023-01-19T03:44:06.083Z,99779.44
2023-01-19T03:46:35.320Z,99775.94
2023-01-19T03:49:04.066Z,99772.47
2023-01-19T03:51:33.085Z,99781.97
2023-01-19T03:54:01.666Z,99784.56
2023-01-19T03:56:31.774Z,99777.69
2023-01-19T03:59:00.216Z,99773.38
2023-01-19T04:01:28.925Z,99782.00
2023-01-19T04:03:57.438Z,99791.50
2023-01-19T04:06:26.959Z,99775.94
2023-01-19T04:08:55.949Z,99782.81
2023-01-19T04:11:24.495Z,99790.56
2023-01-19T04:13:54.295Z,99794.88
2023-01-19T04:16:23.565Z,99787.97
2023-01-19T04:18:52.745Z,99786.22
2023-01-19T04:21:21.793Z,99789.66
2023-01-19T04:23:50.981Z,99793.94
2023-01-19T04:26:19.464Z,99798.22
2023-01-19T04:28:47.753Z,99797.34
2023-01-19T04:31:19.318Z,99792.13
2023-01-19T04:33:47.746Z,99784.25
2023-01-19T04:36:16.094Z,99772.13
2023-01-19T04:38:46.693Z,99775.50
2023-01-19T04:41:15.087Z,99788.41
2023-01-19T04:43:44.029Z,99791.91
2023-01-19T04:46:12.630Z,99784.16
2023-01-19T04:48:42.801Z,99785.06
2023-01-19T04:51:11.283Z,99786.81
2023-01-19T04:53:39.597Z,99794.59
2023-01-19T04:56:08.964Z,99806.63
2023-01-19T04:58:38.046Z,99803.19
2023-01-19T05:01:09.663Z,99807.50
2023-01-19T05:03:38.580Z,99810.94
2023-01-19T05:06:09.305Z,99818.72
2023-01-19T05:08:38.457Z,99820.41
2023-01-19T05:11:07.275Z,99823.00
2023-01-19T05:13:36.343Z,99815.22
2023-01-19T05:16:06.239Z,99831.63
2023-01-19T05:18:37.177Z,99834.16
2023-01-19T05:21:08.174Z,99836.78
2023-01-19T05:23:37.233Z,99834.16
2023-01-19T05:26:14.163Z,99847.09
2023-01-19T05:28:42.782Z,99853.13
2023-01-19T05:31:11.227Z,99856.63
2023-01-19T05:33:39.701Z,99850.56
2023-01-19T05:36:10.552Z,99847.94
2023-01-19T05:38:39.161Z,99860.84
2023-01-19T05:41:08.307Z,99866.94
2023-01-19T05:43:37.505Z,99868.66
2023-01-19T05:46:06.312Z,99867.78
2023-01-19T05:48:35.741Z,99877.28
2023-01-19T05:51:05.157Z,99875.53
2023-01-19T05:53:35.007Z,99887.63
2023-01-19T05:56:05.868Z,99887.63
2023-01-19T05:58:35.811Z,99896.28
2023-01-19T06:01:06.033Z,99895.53
2023-01-19T06:03:36.261Z,99893.00
2023-01-19T06:06:05.923Z,99899.13
2023-01-19T06:08:36.054Z,99896.53
2023-01-19T06:11:07.836Z,99904.28
2023-01-19T06:13:37.283Z,99903.41
2023-01-19T06:16:06.432Z,99912.97
2023-01-19T06:18:34.962Z,99907.78
2023-01-19T06:21:07.274Z,99910.38
2023-01-19T06:23:38.474Z,99918.16
2023-01-19T06:26:07.459Z,99905.19
2023-01-19T06:28:35.976Z,99906.97
2023-01-19T06:31:04.877Z,99910.44
2023-01-19T06:33:33.453Z,99919.16
2023-01-19T06:36:02.103Z,99917.50
2023-01-19T06:38:30.768Z,99930.50
2023-01-19T06:41:02.767Z,99939.22
2023-01-19T06:43:32.070Z,99950.53
2023-01-19T06:46:01.763Z,99955.75
2023-01-19T06:48:30.200Z,99965.31
2023-01-19T06:50:59.920Z,99950.66
2023-01-19T06:53:30.210Z,99961.06
2023-01-19T06:56:03.138Z,99956.75
2023-01-19T06:58:34.827Z,99973.28
2023-01-19T07:01:04.204Z,99963.84
2023-01-19T07:03:33.523Z,99971.66
2023-01-19T07:06:02.863Z,99980.22
2023-01-19T07:08:31.364Z,99981.84
2023-01-19T07:11:25.564Z,99989.56
2023-01-19T07:13:56.034Z,99986.84
2023-01-19T07:16:25.521Z,99993.69
2023-01-19T07:18:54.731Z,99990.97
2023-01-19T07:21:23.785Z,100002.13
2023-01-19T07:23:53.484Z,100016.78
2023-01-19T07:26:25.413Z,100025.41
2023-01-19T07:28:54.339Z,100020.16
2023-01-19T07:31:23.308Z,100019.19
2023-01-19T07:33:52.114Z,100025.22
2023-01-19T07:36:20.443Z,100024.31
2023-01-19T07:38:48.817Z,100028.66
2023-01-19T07:41:17.131Z,100029.47
2023-01-19T07:43:47.239Z,100046.78
2023-01-19T07:46:16.489Z,100044.16
2023-01-19T07:48:47.462Z,100053.66
2023-01-19T07:51:18.924Z,100058.75
2023-01-19T07:53:47.654Z,100058.75
2023-01-19T07:56:16.102Z,100068.22
2023-01-19T07:58:46.940Z,100063.03
2023-01-19T08:01:16.023Z,100078.50
2023-01-19T08:03:45.001Z,100084.56
2023-01-19T08:06:21.113Z,100087.09
2023-01-19T08:08:49.786Z,100092.28
2023-01-19T08:11:18.230Z,100087.97
2023-01-19T08:13:47.961Z,100085.47
2023-01-19T08:16:16.684Z,100093.31
2023-01-19T08:18:45.456Z,100103.81
2023-01-19T08:21:13.812Z,100099.56
2023-01-19T08:23:42.586Z,100097.94
2023-01-19T08:26:23.915Z,100116.09
2023-01-19T08:28:54.316Z,100118.72
2023-01-19T08:31:24.998Z,100120.50
2023-01-19T08:33:53.832Z,100118.84
2023-01-19T08:36:22.727Z,100133.59
2023-01-19T08:38:51.287Z,100129.34
2023-01-19T08:41:19.696Z,100129.38
2023-01-19T08:43:48.010Z,100138.94
2023-01-19T08:46:21.109Z,100137.25
2023-01-19T08:48:50.327Z,100139.91
2023-01-19T08:51:19.159Z,100144.31
2023-01-19T08:53:47.566Z,100154.81
2023-01-19T08:56:16.407Z,100147.16
2023-01-19T08:58:53.667Z,100156.81
2023-01-19T09:01:33.151Z,100162.84
2023-01-19T09:04:01.592Z,100168.91
2023-01-19T09:06:30.079Z,100169.72
2023-01-19T09:08:58.665Z,100174.88
2023-01-19T09:11:27.694Z,100179.16
2023-01-19T09:13:56.019Z,100187.78
2023-01-19T09:16:27.145Z,100190.38
2023-01-19T09:18:57.122Z,100194.66
2023-01-19T09:21:25.979Z,100194.66
2023-01-19T09:23:54.798Z,100203.38
2023-01-19T09:26:23.977Z,100203.38
2023-01-19T09:28:52.479Z,100205.16
2023-01-19T09:31:21.531Z,100206.88
2023-01-19T09:33:50.131Z,100216.44
2023-01-19T09:36:19.983Z,100215.56
2023-01-19T09:38:48.403Z,100223.34
2023-01-19T09:41:23.326Z,100220.75
2023-01-19T09:43:57.629Z,100228.50
2023-01-19T09:46:35.370Z,100233.69
2023-01-19T09:49:07.962Z,100229.31
2023-01-19T09:51:40.894Z,100237.09
2023-01-19T09:54:15.808Z,100239.63
2023-01-19T09:56:45.310Z,100241.31
2023-01-19T09:59:22.597Z,100246.47
2023-01-19T10:02:24.061Z,100243.78
2023-01-19T10:05:01.429Z,100248.06
2023-01-19T10:08:03.573Z,100257.53
2023-01-19T10:10:33.898Z,100249.69
2023-01-19T10:13:19.307Z,100262.63
2023-01-19T10:16:03.189Z,100263.53
2023-01-19T10:18:47.938Z,100268.75
2023-01-19T10:21:21.287Z,100271.47
2023-01-19T10:23:54.778Z,100279.34
2023-01-19T10:26:26.544Z,100263.88
2023-01-19T10:28:59.854Z,100273.47
2023-01-19T10:31:28.348Z,100275.31
2023-01-19T10:33:56.743Z,100277.22
2023-01-19T10:36:36.330Z,100277.34
2023-01-19T10:39:08.056Z,100281.75
2023-01-19T10:41:44.060Z,100282.75
2023-01-19T10:44:12.990Z,100288.91
2023-01-19T10:46:46.653Z,100285.59
2023-01-19T10:49:30.120Z,100289.97
2023-01-19T10:52:01.466Z,100284.03
2023-01-19T10:54:32.993Z,100283.25
2023-01-19T10:57:05.933Z,100286.81
2023-01-19T10:59:38.239Z,100286.03
2023-01-19T11:02:20.402Z,100294.75
2023-01-19T11:04:52.817Z,100291.38
2023-01-19T11:07:24.903Z,100296.66
2023-01-19T11:10:22.280Z,100305.41
2023-01-19T11:13:03.409Z,100300.28
2023-01-19T11:15:35.870Z,100295.97
2023-01-19T11:18:06.934Z,100302.09
2023-01-19T11:20:48.493Z,100296.03
2023-01-19T11:23:29.473Z,100302.13
2023-01-19T11:26:02.194Z,100300.44
2023-01-19T11:28:35.826Z,100297.88
2023-01-19T11:31:19.046Z,100297.94
2023-01-19T11:33:52.437Z,100299.72
2023-01-19T11:36:23.654Z,100300.69
2023-01-19T11:38:55.765Z,100312.88
2023-01-19T11:41:30.358Z,100309.44
2023-01-19T11:44:12.441Z,100307.78
2023-01-19T11:46:47.406Z,100308.66
2023-01-19T11:49:26.419Z,100309.56
2023-01-19T11:52:03.584Z,100311.34
2023-01-19T11:54:38.013Z,100317.41
2023-01-19T11:57:15.160Z,100316.66
2023-01-19T11:59:43.905Z,100317.56
2023-01-19T12:02:27.625Z,100321.97
2023-01-19T12:05:00.643Z,100315.94
2023-01-19T12:07:34.300Z,100317.78
2023-01-19T12:10:21.691Z,100318.75
2023-01-19T12:12:52.751Z,100309.25
2023-01-19T12:15:28.126Z,100317.16
2023-01-19T12:18:01.029Z,100307.69
2023-01-19T12:20:33.294Z,100306.94
2023-01-19T12:23:19.426Z,100313.16
2023-01-19T12:26:03.694Z,100308.03
2023-01-19T12:28:37.912Z,100314.28
2023-01-19T12:31:08.099Z,100312.75
2023-01-19T12:33:38.973Z,100319.88
2023-01-19T12:36:12.407Z,100315.69
2023-01-19T12:38:48.998Z,100329.72
2023-01-19T12:41:30.467Z,100320.25
2023-01-19T12:44:22.708Z,100319.41
2023-01-19T12:46:55.697Z,100334.22
2023-01-19T12:49:31.815Z,100330.75
2023-01-19T12:52:30.871Z,100335.03
2023-01-19T12:55:04.242Z,100339.28
2023-01-19T12:57:39.202Z,100344.41
2023-01-19T13:00:35.088Z,100348.63
2023-01-19T13:03:22.258Z,100354.59
2023-01-19T13:05:54.646Z,100350.13
2023-01-19T13:08:29.931Z,100350.84
2023-01-19T13:11:24.317Z,100350.66
2023-01-19T13:14:36.998Z,100348.75
2023-01-19T13:17:34.621Z,100350.84
2023-01-19T13:20:28.438Z,100354.72
2023-01-19T13:23:25.977Z,100353.97
2023-01-19T13:26:06.911Z,100353.31
2023-01-19T13:28:42.833Z,100347.41
2023-01-19T13:31:12.338Z,100351.91
2023-01-19T13:33:50.283Z,100364.16
2023-01-19T13:36:32.536Z,100358.78
2023-01-19T13:39:05.145Z,100368.91
2023-01-19T13:41:38.397Z,100368.56
2023-01-19T13:44:14.093Z,100356.09
2023-01-19T13:46:42.835Z,100371.50
2023-01-19T13:49:21.392Z,100367.78
2023-01-19T13:52:06.380Z,100375.44
2023-01-19T13:54:34.741Z,100370.16
2023-01-19T13:57:03.139Z,100383.06
2023-01-19T13:59:31.506Z,100376.06
2023-01-19T14:02:12.718Z,100379.50
2023-01-19T14:04:43.016Z,100384.72
2023-01-19T14:07:26.252Z,100389.84
2023-01-19T14:10:06.045Z,100391.50
2023-01-19T14:12:37.615Z,100394.13
2023-01-19T14:15:14.380Z,100391.59
2023-01-19T14:17:43.701Z,100390.88
2023-01-19T14:20:36.882Z,100403.16
2023-01-19T14:23:05.692Z,100401.53
2023-01-19T14:25:39.007Z,100403.34
2023-01-19T14:28:30.932Z,100417.22
2023-01-19T14:31:01.666Z,100418.91
2023-01-19T14:33:46.122Z,100416.22
2023-01-19T14:36:39.251Z,100420.47
2023-01-19T14:39:20.456Z,100428.16
2023-01-19T14:41:52.704Z,100428.91
2023-01-19T14:44:29.841Z,100440.84
2023-01-19T14:46:59.926Z,100445.91
2023-01-19T14:49:34.310Z,100444.03
2023-01-19T14:52:08.593Z,100444.69
2023-01-19T14:54:40.972Z,100454.06
2023-01-19T14:57:14.001Z,100458.25
2023-01-19T14:59:46.941Z,100462.41
2023-01-19T15:02:15.553Z,100464.84
2023-01-19T15:04:44.014Z,100465.56
2023-01-19T15:07:19.378Z,100461.03
2023-01-19T15:09:48.881Z,100459.13
2023-01-19T15:12:20.713Z,100469.31
2023-01-19T15:14:49.487Z,100473.47
2023-01-19T15:17:25.341Z,100487.19
2023-01-19T15:19:55.189Z,100478.34
2023-01-19T15:22:29.365Z,100483.38
2023-01-19T15:25:00.137Z,100491.03
2023-01-19T15:27:28.885Z,100487.44
2023-01-19T15:29:58.480Z,100494.16
2023-01-19T15:32:26.877Z,100500.91
2023-01-19T15:34:55.612Z,100505.09
2023-01-19T15:37:25.850Z,100503.19
2023-01-19T15:39:54.697Z,100512.59
2023-01-19T15:42:23.200Z,100516.81
2023-01-19T15:44:51.672Z,100517.56
2023-01-19T15:47:20.330Z,100519.16
2023-01-19T15:49:49.046Z,100521.56
2023-01-19T15:52:17.422Z,100521.38
2023-01-19T15:54:47.175Z,100517.72
2023-01-19T15:57:15.440Z,100521.91
2023-01-19T15:59:44.150Z,100531.28
2023-01-19T16:02:12.874Z,100531.97
2023-01-19T16:04:41.722Z,100529.16
2023-01-19T16:07:10.288Z,100539.31
2023-01-19T16:09:38.785Z,100541.66
2023-01-19T16:12:08.991Z,100540.53
2023-01-19T16:14:37.894Z,100544.63
2023-01-19T16:17:06.974Z,100540.13
2023-01-19T16:19:37.983Z,100548.50
2023-01-19T16:22:07.005Z,100551.75
2023-01-19T16:24:35.764Z,100567.06
2023-01-19T16:27:04.743Z,100563.44
2023-01-19T16:29:34.605Z,100562.44
2023-01-19T16:32:03.145Z,100564.03
2023-01-19T16:34:31.601Z,100567.47
2023-01-19T16:36:59.946Z,100568.28
2023-01-19T16:39:29.602Z,100581.22
2023-01-19T16:41:57.959Z,100575.09
2023-01-19T16:44:26.303Z,100579.47
2023-01-19T16:46:56.258Z,100587.22
2023-01-19T16:49:28.535Z,100587.09
2023-01-19T16:51:58.734Z,100585.31
2023-01-19T16:54:29.295Z,100589.63
2023-01-19T16:56:59.353Z,100591.28
2023-01-19T16:59:30.571Z,100599.03
2023-01-19T17:02:00.783Z,100605.03
2023-01-19T17:04:29.583Z,100610.22
2023-01-19T17:06:58.068Z,100611.09
2023-01-19T17:09:26.496Z,100612.81
2023-01-19T17:11:54.918Z,100617.22
2023-01-19T17:14:23.824Z,100619.06
2023-01-19T17:16:52.570Z,100615.75
2023-01-19T17:19:23.521Z,100625.31
2023-01-19T17:21:52.481Z,100631.28
2023-01-19T17:24:21.617Z,100626.88
2023-01-19T17:26:49.969Z,100630.25
2023-01-19T17:29:19.048Z,100631.97
2023-01-19T17:31:51.561Z,100626.59
2023-01-19T17:34:21.471Z,100637.75
2023-01-19T17:36:52.690Z,100634.28
2023-01-19T17:39:21.651Z,100629.84
2023-01-19T17:41:50.379Z,100639.25
2023-01-19T17:44:19.574Z,100640.84
2023-01-19T17:46:48.600Z,100632.16
2023-01-19T17:49:16.981Z,100634.66
2023-01-19T17:51:47.049Z,100639.75
2023-01-19T17:54:15.330Z,100634.56
2023-01-19T17:56:44.810Z,100637.91
2023-01-19T17:59:13.339Z,100638.66
2023-01-19T18:01:42.908Z,100640.31
2023-01-19T18:04:11.788Z,100643.66
2023-01-19T18:06:42.966Z,100637.56
2023-01-19T18:09:13.000Z,100640.97
2023-01-19T18:11:42.774Z,100638.28
2023-01-19T18:14:11.226Z,100640.81
2023-01-19T18:16:39.568Z,100648.47
2023-01-19T18:19:08.473Z,100653.47
2023-01-19T18:21:38.122Z,100653.22
2023-01-19T18:24:08.467Z,100653.19
2023-01-19T18:26:39.015Z,100665.09
2023-01-19T18:29:07.536Z,100662.44
2023-01-19T18:31:35.972Z,100661.56
2023-01-19T18:34:04.871Z,100661.41
2023-01-19T18:36:34.208Z,100660.44
2023-01-19T18:39:03.464Z,100662.91
2023-01-19T18:41:31.972Z,100668.91
2023-01-19T18:44:02.145Z,100674.06
2023-01-19T18:46:30.590Z,100675.66
2023-01-19T18:48:58.915Z,100664.41
2023-01-19T18:51:27.237Z,100664.28
2023-01-19T18:53:55.836Z,100674.63
2023-01-19T18:56:25.127Z,100664.19
2023-01-19T18:58:54.307Z,100670.88
2023-01-19T19:01:27.420Z,100672.44
2023-01-19T19:03:57.115Z,100670.56
2023-01-19T19:06:27.223Z,100676.38
2023-01-19T19:08:57.669Z,100681.41
2023-01-19T19:11:27.913Z,100683.81
2023-01-19T19:13:58.524Z,100686.38
2023-01-19T19:16:29.632Z,100689.69
2023-01-19T19:18:58.155Z,100688.00
2023-01-19T19:21:26.904Z,100693.03
2023-01-19T19:23:57.373Z,100690.34
2023-01-19T19:26:28.017Z,100694.69
2023-01-19T19:28:56.845Z,100694.66
2023-01-19T19:31:27.697Z,100704.13
2023-01-19T19:33:58.314Z,100705.75
2023-01-19T19:36:29.024Z,100704.72
2023-01-19T19:38:59.215Z,100716.88
2023-01-19T19:41:29.515Z,100714.25
2023-01-19T19:43:57.934Z,100723.63
2023-01-19T19:46:28.103Z,100727.00
2023-01-19T19:48:56.561Z,100727.78
2023-01-19T19:51:27.138Z,100733.78
2023-01-19T19:53:57.437Z,100731.94
2023-01-19T19:56:28.224Z,100730.94
2023-01-19T19:58:59.086Z,100732.66
2023-01-19T20:01:33.459Z,100739.56
2023-01-19T20:04:09.835Z,100738.53
2023-01-19T20:06:40.151Z,100748.94
2023-01-19T20:09:10.728Z,100749.63
2023-01-19T20:11:39.426Z,100765.25
2023-01-19T20:14:09.651Z,100758.44
2023-01-19T20:16:40.565Z,100759.25
2023-01-19T20:19:09.534Z,100760.09
2023-01-19T20:21:41.852Z,100767.00
2023-01-19T20:24:15.663Z,100756.69
2023-01-19T20:26:47.371Z,100760.97
2023-01-19T20:29:16.567Z,100765.94
2023-01-19T20:31:49.782Z,100768.41
2023-01-19T20:34:21.392Z,100781.31
2023-01-19T20:36:51.804Z,100783.88
2023-01-19T20:39:21.901Z,100790.88
2023-01-19T20:41:51.449Z,100797.94
2023-01-19T20:44:23.261Z,100800.84
2023-01-19T20:46:54.785Z,100812.41
2023-01-19T20:49:24.038Z,100811.00
2023-01-19T20:51:53.578Z,100814.66
2023-01-19T20:54:27.269Z,100814.75
2023-01-19T20:56:56.059Z,100814.75
2023-01-19T20:59:24.979Z,100811.38
2023-01-19T21:01:55.118Z,100809.59
2023-01-19T21:04:23.983Z,100802.63
2023-01-19T21:06:52.419Z,100807.59
2023-01-19T21:09:21.842Z,100810.00
2023-01-19T21:11:50.821Z,100812.41
2023-01-19T21:14:22.077Z,100808.78
2023-01-19T21:16:50.864Z,100804.25
2023-01-19T21:19:20.789Z,100804.13
2023-01-19T21:21:52.202Z,100809.91
2023-01-19T21:24:21.099Z,100820.13
2023-01-19T21:26:49.459Z,100814.69
2023-01-19T21:29:17.700Z,100827.50
2023-01-19T21:31:46.220Z,100816.22
2023-01-19T21:34:14.841Z,100832.38
2023-01-19T21:36:45.270Z,100833.13
2023-01-19T21:39:14.895Z,100837.41
2023-01-19T21:41:45.248Z,100837.34
2023-01-19T21:44:14.420Z,100843.38
2023-01-19T21:46:43.695Z,100850.16
2023-01-19T21:49:19.195Z,100849.97
2023-01-19T21:51:50.756Z,100852.50
2023-01-19T21:54:19.473Z,100856.72
2023-01-19T21:56:47.731Z,100861.72
2023-01-19T21:59:17.629Z,100872.75
2023-01-19T22:01:47.769Z,100866.63
2023-01-19T22:04:16.135Z,100875.06
2023-01-19T22:06:45.290Z,100873.25
2023-01-19T22:09:14.944Z,100874.94
2023-01-19T22:11:43.791Z,100872.41
2023-01-19T22:14:12.162Z,100881.84
2023-01-19T22:16:40.585Z,100885.25
2023-01-19T22:19:14.454Z,100889.50
2023-01-19T22:21:43.363Z,100891.13
2023-01-19T22:24:12.854Z,100885.09
2023-01-19T22:26:42.769Z,100891.13
2023-01-19T22:29:13.392Z,100899.69
2023-01-19T22:31:43.194Z,100891.94
2023-01-19T22:34:11.818Z,100892.03
2023-01-19T22:36:40.886Z,100896.34
2023-01-19T22:39:11.666Z,100894.63
2023-01-19T22:41:44.079Z,100893.78
2023-01-19T22:44:16.436Z,100889.56
2023-01-19T22:46:45.389Z,100897.31
2023-01-19T22:49:16.226Z,100893.78
2023-01-19T22:51:45.742Z,100901.59
2023-01-19T22:54:14.561Z,100904.09
2023-01-19T22:56:45.772Z,100905.78
2023-01-19T22:59:14.115Z,100901.50
2023-01-19T23:01:44.763Z,100907.59
2023-01-19T23:04:15.555Z,100908.56
2023-01-19T23:06:47.014Z,100902.53
2023-01-19T23:09:15.974Z,100905.09
2023-01-19T23:11:50.870Z,100899.03
2023-01-19T23:14:23.203Z,100911.13
2023-01-19T23:16:51.906Z,100916.28
2023-01-19T23:19:20.991Z,100909.34
2023-01-19T23:21:52.603Z,100913.63
2023-01-19T23:24:21.164Z,100914.50
2023-01-19T23:26:52.263Z,100911.06
2023-01-19T23:29:20.816Z,100913.63
2023-01-19T23:31:50.891Z,100912.75
2023-01-19T23:34:19.255Z,100917.09
2023-01-19T23:36:47.532Z,100917.91
2023-01-19T23:39:19.002Z,100916.19
2023-01-19T23:41:48.163Z,100925.56
2023-01-19T23:44:18.495Z,100922.94
2023-01-19T23:46:47.253Z,100920.38
2023-01-19T23:49:15.766Z,100923.75
2023-01-19T23:51:44.799Z,100928.91
2023-01-19T23:54:13.218Z,100926.31
2023-01-19T23:56:42.795Z,100935.75
2023-01-19T23:59:13.258Z,100937.50
